createdAt,value
2022-08-10T00:01:08.500Z,100962.03
2022-08-10T00:04:09.973Z,100967.31
2022-08-10T00:07:22.757Z,100968.69
2022-08-10T00:10:26.786Z,100970.38
2022-08-10T00:13:28.406Z,100966.75
2022-08-10T00:16:29.883Z,100965.91
2022-08-10T00:20:02.456Z,100969.13
2022-08-10T00:22:57.413Z,100961.72
2022-08-10T00:25:59.689Z,100961.66
2022-08-10T00:29:01.146Z,100955.56
2022-08-10T00:32:02.848Z,100960.97
2022-08-10T00:35:05.161Z,100954.94
2022-08-10T00:38:06.619Z,100957.16
2022-08-10T00:41:08.077Z,100962.97
2022-08-10T00:44:09.469Z,100967.28
2022-08-10T00:47:36.287Z,100957.38
2022-08-10T00:50:34.409Z,100958.72
2022-08-10T00:53:35.931Z,100969.25
2022-08-10T00:57:15.774Z,100962.75
2022-08-10T01:00:00.478Z,100957.78
2022-08-10T01:03:02.194Z,100950.91
2022-08-10T01:06:36.499Z,100956.75
2022-08-10T01:09:57.339Z,100956.63
2022-08-10T01:13:10.960Z,100959.28
2022-08-10T01:16:20.885Z,100948.75
2022-08-10T01:19:22.290Z,100949.75
2022-08-10T01:22:28.950Z,100957.66
2022-08-10T01:26:11.459Z,100952.94
2022-08-10T01:29:35.234Z,100955.22
2022-08-10T01:32:50.052Z,100955.59
2022-08-10T01:36:09.485Z,100954.31
2022-08-10T01:39:15.797Z,100958.13
2022-08-10T01:42:22.285Z,100948.84
2022-08-10T01:45:26.166Z,100947.31
2022-08-10T01:48:34.431Z,100948.78
2022-08-10T01:51:43.633Z,100958.41
2022-08-10T01:54:46.430Z,100952.41
2022-08-10T01:57:50.300Z,100955.16
2022-08-10T02:00:54.708Z,100954.00
2022-08-10T02:04:04.213Z,100954.94
2022-08-10T02:07:11.396Z,100951.41
2022-08-10T02:10:15.657Z,100955.56
2022-08-10T02:13:19.622Z,100947.19
2022-08-10T02:16:23.420Z,100956.56
2022-08-10T02:19:26.210Z,100965.69
2022-08-10T02:22:37.816Z,100957.38
2022-08-10T02:25:43.779Z,100962.88
2022-08-10T02:28:46.249Z,100967.06
2022-08-10T02:31:51.398Z,100973.72
2022-08-10T02:34:57.312Z,100965.72
2022-08-10T02:38:06.462Z,100970.28
2022-08-10T02:45:14.336Z,100969.53
2022-08-10T02:45:19.340Z,100970.38
2022-08-10T02:48:39.521Z,100969.16
2022-08-10T02:52:06.612Z,100975.63
2022-08-10T02:55:30.284Z,100973.13
2022-08-10T02:58:40.667Z,100977.63
2022-08-10T03:01:46.450Z,100969.69
2022-08-10T03:04:54.970Z,100970.50
2022-08-10T03:08:05.713Z,100969.44
2022-08-10T03:11:10.012Z,100965.41
2022-08-10T03:14:13.533Z,100962.19
2022-08-10T03:17:16.849Z,100966.06
2022-08-10T03:20:37.084Z,100959.38
2022-08-10T03:23:42.849Z,100978.94
2022-08-10T03:26:44.394Z,100969.59
2022-08-10T03:30:29.512Z,100979.31
2022-08-10T03:33:08.934Z,100970.50
2022-08-10T03:36:40.276Z,100975.03
2022-08-10T03:39:32.377Z,100977.44
2022-08-10T03:42:37.168Z,100979.97
2022-08-10T03:45:54.246Z,100969.19
2022-08-10T03:49:00.894Z,100971.59
2022-08-10T03:52:03.092Z,100979.22
2022-08-10T03:55:05.430Z,100974.09
2022-08-10T03:58:07.042Z,100986.41
2022-08-10T04:01:09.858Z,100986.22
2022-08-10T04:04:14.644Z,100990.06
2022-08-10T04:07:19.256Z,100986.75
2022-08-10T04:10:20.847Z,100990.75
2022-08-10T04:13:22.891Z,100993.34
2022-08-10T04:16:24.463Z,101001.19
2022-08-10T04:19:28.355Z,100992.78
2022-08-10T04:22:30.536Z,100991.56
2022-08-10T04:25:32.191Z,101002.56
2022-08-10T04:28:34.771Z,101003.59
2022-08-10T04:31:37.072Z,101002.50
2022-08-10T04:34:44.776Z,101001.78
2022-08-10T04:37:49.412Z,101011.19
2022-08-10T04:40:51.589Z,101016.03
2022-08-10T04:43:52.993Z,101008.38
2022-08-10T04:46:57.821Z,101007.94
2022-08-10T04:50:00.806Z,101009.78
2022-08-10T04:53:04.032Z,101007.94
2022-08-10T04:56:05.704Z,101014.06
2022-08-10T04:59:09.073Z,101006.81
2022-08-10T05:02:29.206Z,101007.09
2022-08-10T05:05:32.043Z,101002.22
2022-08-10T05:08:33.465Z,100999.72
2022-08-10T05:11:34.968Z,101001.69
2022-08-10T05:14:36.426Z,101018.94
2022-08-10T05:17:39.062Z,101017.72
2022-08-10T05:20:40.591Z,101018.94
2022-08-10T05:23:42.023Z,101021.88
2022-08-10T05:27:00.559Z,101026.03
2022-08-10T05:30:06.946Z,101027.69
2022-08-10T05:33:09.128Z,101025.94
2022-08-10T05:36:10.829Z,101024.94
2022-08-10T05:39:13.304Z,101034.19
2022-08-10T05:42:17.786Z,101027.06
2022-08-10T05:45:22.028Z,101027.13
2022-08-10T05:48:57.115Z,101027.97
2022-08-10T05:51:45.212Z,101036.56
2022-08-10T05:54:47.602Z,101038.91
2022-08-10T05:57:49.201Z,101036.38
2022-08-10T06:00:54.485Z,101036.03
2022-08-10T06:03:58.638Z,101035.59
2022-08-10T06:07:01.984Z,101037.78
2022-08-10T06:10:03.990Z,101030.16
2022-08-10T06:13:34.378Z,101030.97
2022-08-10T06:16:53.489Z,101035.28
2022-08-10T06:19:56.816Z,101033.91
2022-08-10T06:23:03.209Z,101027.81
2022-08-10T06:26:11.182Z,101037.19
2022-08-10T06:29:16.812Z,101034.28
2022-08-10T06:32:20.079Z,101034.06
2022-08-10T06:35:23.508Z,101035.28
2022-08-10T06:38:27.052Z,101039.88
2022-08-10T06:41:57.779Z,101049.78
2022-08-10T06:45:00.599Z,101041.06
2022-08-10T06:48:28.439Z,101049.97
2022-08-10T06:51:33.365Z,101052.06
2022-08-10T06:54:36.704Z,101057.34
2022-08-10T06:57:39.188Z,101050.88
2022-08-10T07:00:43.465Z,101045.16
2022-08-10T07:03:48.931Z,101051.31
2022-08-10T07:06:50.985Z,101050.53
2022-08-10T07:09:55.526Z,101050.56
2022-08-10T07:12:59.199Z,101052.31
2022-08-10T07:16:01.627Z,101046.94
2022-08-10T07:19:04.886Z,101054.31
2022-08-10T07:22:07.659Z,101055.53
2022-08-10T07:25:11.993Z,101056.78
2022-08-10T07:28:13.856Z,101059.91
2022-08-10T07:31:34.814Z,101056.84
2022-08-10T07:34:41.640Z,101056.28
2022-08-10T07:37:47.983Z,101062.34
2022-08-10T07:40:51.676Z,101053.97
2022-08-10T07:43:56.771Z,101062.38
2022-08-10T07:47:03.889Z,101066.63
2022-08-10T07:50:08.616Z,101059.41
2022-08-10T07:53:19.262Z,101062.81
2022-08-10T07:56:47.905Z,101073.56
2022-08-10T07:59:55.490Z,101063.84
2022-08-10T08:02:59.667Z,101066.28
2022-08-10T08:06:05.596Z,101071.78
2022-08-10T08:09:13.756Z,101065.19
2022-08-10T08:12:16.657Z,101072.50
2022-08-10T08:16:18.488Z,101062.72
2022-08-10T08:18:58.447Z,101066.88
2022-08-10T08:24:08.090Z,101075.03
2022-08-10T08:25:29.426Z,101066.09
2022-08-10T08:28:34.557Z,101063.88
2022-08-10T08:31:37.868Z,101062.59
2022-08-10T08:35:03.564Z,101058.78
2022-08-10T08:38:32.243Z,101053.88
2022-08-10T08:42:05.421Z,101059.44
2022-08-10T08:45:06.981Z,101052.84
2022-08-10T08:48:11.542Z,101042.91
2022-08-10T08:52:07.018Z,101052.31
2022-08-10T08:56:05.078Z,101058.94
2022-08-10T08:58:47.694Z,101056.91
2022-08-10T09:02:25.485Z,101049.84
2022-08-10T09:05:59.377Z,101047.31
2022-08-10T09:09:27.100Z,101046.91
2022-08-10T09:12:37.756Z,101050.78
2022-08-10T09:16:30.011Z,101043.13
2022-08-10T09:19:55.221Z,101047.22
2022-08-10T09:23:13.276Z,101043.88
2022-08-10T09:26:20.883Z,101042.78
2022-08-10T09:29:33.195Z,101045.03
2022-08-10T09:36:15.243Z,101050.44
2022-08-10T09:36:33.043Z,101040.44
2022-08-10T09:40:58.103Z,101055.03
2022-08-10T09:43:51.062Z,101047.03
2022-08-10T09:47:01.666Z,101040.63
2022-08-10T09:50:18.288Z,101030.63
2022-08-10T09:53:24.543Z,101038.00
2022-08-10T09:56:47.848Z,101047.66
2022-08-10T10:00:25.881Z,101035.06
2022-08-10T10:03:36.151Z,101027.28
2022-08-10T10:07:05.718Z,101031.00
2022-08-10T10:10:19.639Z,101020.91
2022-08-10T10:13:52.806Z,101017.53
2022-08-10T10:17:18.840Z,101010.34
2022-08-10T10:20:29.260Z,101016.69
2022-08-10T10:24:19.782Z,101012.03
2022-08-10T10:27:40.174Z,101013.13
2022-08-10T10:30:59.891Z,101027.25
2022-08-10T10:34:20.073Z,101021.84
2022-08-10T10:38:01.027Z,101005.38
2022-08-10T10:41:11.452Z,101006.38
2022-08-10T10:44:50.492Z,101005.97
2022-08-10T10:47:59.328Z,100995.78
2022-08-10T10:51:27.158Z,100993.50
2022-08-10T10:54:40.495Z,100993.00
2022-08-10T10:58:06.633Z,100995.06
2022-08-10T11:01:45.716Z,100987.69
2022-08-10T11:05:12.737Z,100975.63
2022-08-10T11:08:28.998Z,100969.19
2022-08-10T11:12:01.855Z,100985.31
2022-08-10T11:15:20.965Z,100974.63
2022-08-10T11:18:29.087Z,100973.44
2022-08-10T11:21:51.668Z,100977.78
2022-08-10T11:25:13.141Z,100972.50
2022-08-10T11:28:43.233Z,100968.69
2022-08-10T11:31:50.572Z,100967.03
2022-08-10T11:35:10.235Z,100953.06
2022-08-10T11:38:32.266Z,100956.22
2022-08-10T11:42:11.986Z,100955.75
2022-08-10T11:45:35.204Z,100961.78
2022-08-10T11:48:54.508Z,100954.97
2022-08-10T11:52:04.472Z,100947.25
2022-08-10T11:55:15.547Z,100945.09
2022-08-10T11:58:39.616Z,100950.13
2022-08-10T12:01:41.697Z,100941.00
2022-08-10T12:04:50.357Z,100924.19
2022-08-10T12:10:02.349Z,100936.09
2022-08-10T12:11:24.611Z,100929.47
2022-08-10T12:14:44.969Z,100931.91
2022-08-10T12:17:52.040Z,100929.97
2022-08-10T12:21:02.036Z,100943.72
2022-08-10T12:24:11.722Z,100931.03
2022-08-10T12:27:27.195Z,100920.97
2022-08-10T12:30:36.093Z,100913.88
2022-08-10T12:34:02.123Z,100908.13
2022-08-10T12:37:34.784Z,100914.09
2022-08-10T12:40:45.871Z,100900.69
2022-08-10T12:44:06.437Z,100884.41
2022-08-10T12:47:20.052Z,100883.97
2022-08-10T12:50:30.502Z,100893.44
2022-08-10T12:53:49.976Z,100873.47
2022-08-10T12:56:59.565Z,100883.28
2022-08-10T13:00:02.223Z,100879.38
2022-08-10T13:03:07.077Z,100882.94
2022-08-10T13:06:10.674Z,100865.25
2022-08-10T13:09:14.100Z,100875.31
2022-08-10T13:12:35.886Z,100878.38
2022-08-10T13:15:50.427Z,100858.06
2022-08-10T13:18:54.382Z,100855.47
2022-08-10T13:21:57.925Z,100844.28
2022-08-10T13:25:03.340Z,100849.59
2022-08-10T13:28:36.229Z,100842.03
2022-08-10T13:32:04.498Z,100854.63
2022-08-10T13:34:56.925Z,100835.41
2022-08-10T13:38:01.715Z,100853.16
2022-08-10T13:41:04.028Z,100852.59
2022-08-10T13:44:08.088Z,100845.78
2022-08-10T13:47:11.205Z,100841.22
2022-08-10T13:50:19.314Z,100824.03
2022-08-10T13:53:21.589Z,100834.66
2022-08-10T13:56:24.609Z,100831.03
2022-08-10T14:00:35.062Z,100830.66
2022-08-10T14:03:04.997Z,100827.84
2022-08-10T14:06:11.148Z,100817.00
2022-08-10T14:09:13.272Z,100816.09
2022-08-10T14:12:18.864Z,100811.28
2022-08-10T14:15:36.350Z,100816.22
2022-08-10T14:18:39.165Z,100804.47
2022-08-10T14:21:41.349Z,100802.47
2022-08-10T14:24:42.858Z,100798.13
2022-08-10T14:28:03.035Z,100804.31
2022-08-10T14:31:07.170Z,100792.59
2022-08-10T14:34:10.720Z,100785.91
2022-08-10T14:37:18.396Z,100798.13
2022-08-10T14:40:25.501Z,100785.06
2022-08-10T14:43:40.550Z,100797.81
2022-08-10T14:46:51.638Z,100785.78
2022-08-10T14:49:59.472Z,100783.53
2022-08-10T14:53:16.240Z,100782.34
2022-08-10T14:56:27.288Z,100792.94
2022-08-10T15:00:25.251Z,100778.44
2022-08-10T15:02:58.007Z,100786.38
2022-08-10T15:06:03.726Z,100781.31
2022-08-10T15:09:12.681Z,100762.88
2022-08-10T15:12:26.350Z,100765.91
2022-08-10T15:15:31.301Z,100763.38
2022-08-10T15:18:58.356Z,100773.31
2022-08-10T15:22:18.146Z,100777.94
2022-08-10T15:25:26.419Z,100773.22
2022-08-10T15:29:08.464Z,100763.41
2022-08-10T15:32:11.349Z,100769.69
2022-08-10T15:35:31.612Z,100767.75
2022-08-10T15:38:38.045Z,100764.09
2022-08-10T15:41:57.448Z,100756.66
2022-08-10T15:45:01.678Z,100739.41
2022-08-10T15:48:06.172Z,100746.53
2022-08-10T15:51:27.955Z,100745.97
2022-08-10T15:54:38.096Z,100742.34
2022-08-10T15:57:44.267Z,100745.19
2022-08-10T16:02:13.159Z,100742.28
2022-08-10T16:04:49.504Z,100736.72
2022-08-10T16:07:57.768Z,100741.91
2022-08-10T16:11:03.606Z,100736.91
2022-08-10T16:14:21.093Z,100736.31
2022-08-10T16:17:23.954Z,100734.69
2022-08-10T16:20:32.411Z,100742.50
2022-08-10T16:23:40.641Z,100731.91
2022-08-10T16:26:46.762Z,100731.25
2022-08-10T16:29:56.544Z,100723.75
2022-08-10T16:33:00.343Z,100725.28
2022-08-10T16:36:04.503Z,100721.00
2022-08-10T16:39:08.110Z,100715.31
2022-08-10T16:42:23.486Z,100718.75
2022-08-10T16:45:35.553Z,100729.03
2022-08-10T16:48:49.441Z,100718.16
2022-08-10T16:51:53.237Z,100715.69
2022-08-10T16:55:01.082Z,100721.91
2022-08-10T16:58:43.543Z,100710.72
2022-08-10T17:01:51.655Z,100712.94
2022-08-10T17:04:57.314Z,100704.63
2022-08-10T17:08:08.995Z,100709.22
2022-08-10T17:11:14.065Z,100702.88
2022-08-10T17:14:16.361Z,100694.63
2022-08-10T17:17:21.056Z,100707.50
2022-08-10T17:20:31.356Z,100703.41
2022-08-10T17:23:37.539Z,100701.63
2022-08-10T17:26:40.852Z,100702.31
2022-08-10T17:29:58.794Z,100697.41
2022-08-10T17:33:14.562Z,100694.06
2022-08-10T17:36:17.086Z,100702.25
2022-08-10T17:39:24.883Z,100692.84
2022-08-10T17:42:27.115Z,100698.47
2022-08-10T17:45:48.399Z,100694.84
2022-08-10T17:48:53.341Z,100697.28
2022-08-10T17:51:57.778Z,100694.03
2022-08-10T17:55:07.469Z,100700.09
2022-08-10T17:58:17.948Z,100696.50
2022-08-10T18:01:38.224Z,100695.22
2022-08-10T18:04:48.578Z,100697.78
2022-08-10T18:07:52.770Z,100700.00
2022-08-10T18:10:57.930Z,100704.56
2022-08-10T18:14:02.594Z,100700.56
2022-08-10T18:17:11.034Z,100703.38
2022-08-10T18:20:16.084Z,100709.50
2022-08-10T18:23:31.505Z,100712.22
2022-08-10T18:26:37.726Z,100706.00
2022-08-10T18:29:44.244Z,100712.94
2022-08-10T18:32:49.962Z,100722.59
2022-08-10T18:35:52.663Z,100721.34
2022-08-10T18:38:57.107Z,100725.94
2022-08-10T18:42:10.778Z,100714.06
2022-08-10T18:45:33.263Z,100711.06
2022-08-10T18:48:41.854Z,100707.31
2022-08-10T18:51:47.209Z,100708.47
2022-08-10T18:54:50.967Z,100716.84
2022-08-10T18:58:21.906Z,100712.97
2022-08-10T19:01:54.007Z,100716.16
2022-08-10T19:05:31.131Z,100715.50
2022-08-10T19:08:48.744Z,100718.25
2022-08-10T19:12:00.742Z,100715.09
2022-08-10T19:15:06.631Z,100710.78
2022-08-10T19:18:17.799Z,100719.50
2022-08-10T19:21:28.448Z,100721.47
2022-08-10T19:24:54.588Z,100726.63
2022-08-10T19:28:10.248Z,100727.31
2022-08-10T19:31:23.858Z,100731.31
2022-08-10T19:34:58.274Z,100732.16
2022-08-10T19:38:32.103Z,100731.19
2022-08-10T19:41:45.221Z,100735.50
2022-08-10T19:44:57.788Z,100746.19
2022-08-10T19:48:18.287Z,100738.50
2022-08-10T19:51:26.406Z,100738.59
2022-08-10T19:54:50.351Z,100741.06
2022-08-10T19:58:20.997Z,100753.25
2022-08-10T20:01:25.575Z,100749.69
2022-08-10T20:04:58.946Z,100748.84
2022-08-10T20:08:07.523Z,100749.53
2022-08-10T20:11:44.044Z,100750.53
2022-08-10T20:14:49.474Z,100743.28
2022-08-10T20:18:07.786Z,100741.66
2022-08-10T20:21:32.197Z,100742.22
2022-08-10T20:24:46.758Z,100743.91
2022-08-10T20:28:19.200Z,100756.56
2022-08-10T20:31:28.547Z,100747.63
2022-08-10T20:34:42.006Z,100749.28
2022-08-10T20:38:03.906Z,100754.22
2022-08-10T20:41:16.418Z,100752.00
2022-08-10T20:44:59.779Z,100749.59
2022-08-10T20:48:24.415Z,100750.19
2022-08-10T20:51:59.405Z,100753.59
2022-08-10T20:55:08.391Z,100748.19
2022-08-10T20:58:31.179Z,100753.53
2022-08-10T21:02:10.848Z,100750.78
2022-08-10T21:05:31.838Z,100746.41
2022-08-10T21:08:53.377Z,100741.81
2022-08-10T21:12:16.566Z,100735.88
2022-08-10T21:15:42.030Z,100737.19
2022-08-10T21:19:12.136Z,100735.75
2022-08-10T21:22:18.814Z,100739.66
2022-08-10T21:25:29.641Z,100739.88
2022-08-10T21:28:56.077Z,100739.66
2022-08-10T21:32:19.720Z,100743.88
2022-08-10T21:35:37.884Z,100743.44
2022-08-10T21:38:53.805Z,100737.25
2022-08-10T21:42:31.853Z,100748.28
2022-08-10T21:46:04.445Z,100750.22
2022-08-10T21:49:37.052Z,100749.06
2022-08-10T21:53:12.699Z,100748.56
2022-08-10T21:56:49.045Z,100746.34
2022-08-10T22:00:27.480Z,100740.84
2022-08-10T22:03:50.449Z,100743.22
2022-08-10T22:07:20.102Z,100729.66
2022-08-10T22:10:46.660Z,100735.66
2022-08-10T22:14:09.312Z,100723.31
2022-08-10T22:18:04.421Z,100735.19
2022-08-10T22:21:53.205Z,100730.81
2022-08-10T22:25:39.484Z,100734.53
2022-08-10T22:29:11.278Z,100736.84
2022-08-10T22:32:55.113Z,100741.00
2022-08-10T22:36:30.440Z,100745.47
2022-08-10T22:40:13.408Z,100741.41
2022-08-10T22:43:42.466Z,100745.69
2022-08-10T22:47:03.736Z,100749.72
2022-08-10T22:50:07.776Z,100749.78
2022-08-10T22:53:16.511Z,100745.88
2022-08-10T22:56:38.869Z,100750.59
2022-08-10T22:59:40.358Z,100745.81
2022-08-10T23:02:50.647Z,100752.03
2022-08-10T23:05:55.839Z,100748.56
2022-08-10T23:09:01.386Z,100740.69
2022-08-10T23:12:20.405Z,100740.31
2022-08-10T23:15:53.701Z,100735.78
2022-08-10T23:19:10.794Z,100743.97
2022-08-10T23:22:15.366Z,100744.25
2022-08-10T23:25:21.844Z,100742.75
2022-08-10T23:28:38.383Z,100744.91
2022-08-10T23:32:01.241Z,100750.13
2022-08-10T23:36:30.535Z,100746.00
2022-08-10T23:38:35.797Z,100748.84
2022-08-10T23:41:39.630Z,100752.59
2022-08-10T23:44:53.352Z,100746.38
2022-08-10T23:48:01.132Z,100749.97
2022-08-10T23:51:16.529Z,100755.06
2022-08-10T23:54:22.341Z,100752.03
2022-08-10T23:57:26.401Z,100753.44
